Time;durP1;ratioP1;P1;durP2;ratioP2;P2;SDS_P1;SDS_P2;PMS_P1;PMS_P2;Temp;Humidity;BMP_temperature;BMP_pressure;BME280_temperature;BME280_humidity;BME280_pressure;Samples;Min_cycle;Max_cycle;Signal;HPM_P1;HPM_P2
2024/01/09 00:01:43;;;;;;;;;;;19.20;44.10;;;;;;5020436;28;19932;-61
2024/01/09 00:04:08;;;;;;;;;;;19.10;44.00;;;;;;5027824;28;19932;-61
2024/01/09 00:06:34;;;;;;;;;;;19.10;44.00;;;;;;5032554;28;19925;-61
2024/01/09 00:08:59;;;;;;;;;;;19.10;44.00;;;;;;5051616;28;20008;-61
2024/01/09 00:11:24;;;;;;;;;;;19.10;44.10;;;;;;5022653;28;19947;-61
2024/01/09 00:13:50;;;;;;;;;;;19.10;44.10;;;;;;5023238;28;20015;-61
2024/01/09 00:16:15;;;;;;;;;;;19.10;44.20;;;;;;5051892;28;20026;-61
2024/01/09 00:18:41;;;;;;;;;;;19.00;43.90;;;;;;5037991;28;20133;-61
2024/01/09 00:21:06;;;;;;;;;;;19.00;44.00;;;;;;5040167;28;19921;-61
2024/01/09 00:23:32;;;;;;;;;;;19.00;44.00;;;;;;5035101;28;19936;-61
2024/01/09 00:25:57;;;;;;;;;;;19.00;44.00;;;;;;5054149;28;19925;-61
2024/01/09 00:28:23;;;;;;;;;;;19.00;43.90;;;;;;5028599;28;20434;-61
2024/01/09 00:30:48;;;;;;;;;;;19.00;44.00;;;;;;5042857;28;19925;-61
2024/01/09 00:33:14;;;;;;;;;;;19.00;44.10;;;;;;5017401;28;19932;-61
2024/01/09 00:35:39;;;;;;;;;;;19.00;44.00;;;;;;5021799;28;19924;-61
2024/01/09 00:38:05;;;;;;;;;;;18.90;43.90;;;;;;5019494;28;19932;-61
2024/01/09 00:40:30;;;;;;;;;;;18.90;43.90;;;;;;5035937;28;20380;-61
2024/01/09 00:42:56;;;;;;;;;;;18.90;43.90;;;;;;5031851;28;19931;-61
2024/01/09 00:45:21;;;;;;;;;;;18.90;43.90;;;;;;5033766;28;20289;-61
2024/01/09 00:47:47;;;;;;;;;;;18.90;43.90;;;;;;5015924;28;19961;-61
2024/01/09 00:50:12;;;;;;;;;;;18.90;43.90;;;;;;5031708;28;19964;-61
2024/01/09 00:52:38;;;;;;;;;;;18.90;44.00;;;;;;5054444;28;20399;-61
2024/01/09 00:55:03;;;;;;;;;;;18.90;44.00;;;;;;5054682;28;20038;-61
2024/01/09 00:57:29;;;;;;;;;;;18.90;44.10;;;;;;5025023;28;19925;-61
2024/01/09 00:59:55;;;;;;;;;;;18.90;44.10;;;;;;5022795;28;19925;-61
2024/01/09 01:02:21;;;;;;;;;;;18.90;44.10;;;;;;5037661;28;19925;-61
2024/01/09 01:04:46;;;;;;;;;;;18.90;44.10;;;;;;5051168;28;19931;-61
2024/01/09 01:07:12;;;;;;;;;;;18.90;44.00;;;;;;5049135;28;20292;-61
2024/01/09 01:09:37;;;;;;;;;;;18.90;44.10;;;;;;5054943;28;19925;-61
2024/01/09 01:12:03;;;;;;;;;;;18.90;44.10;;;;;;5036359;28;19925;-61
2024/01/09 01:14:28;;;;;;;;;;;18.90;44.10;;;;;;5046728;28;20403;-61
2024/01/09 01:16:54;;;;;;;;;;;18.90;44.10;;;;;;5036710;28;19932;-61
2024/01/09 01:19:19;;;;;;;;;;;18.90;44.00;;;;;;5053836;28;19924;-61
2024/01/09 01:21:45;;;;;;;;;;;18.90;44.00;;;;;;5054847;28;19932;-61
2024/01/09 01:24:10;;;;;;;;;;;18.90;44.00;;;;;;5053878;28;20454;-61
2024/01/09 01:26:37;;;;;;;;;;;18.90;43.90;;;;;;5035942;28;19925;-61
2024/01/09 01:29:03;;;;;;;;;;;18.90;43.90;;;;;;5035801;28;20019;-61
2024/01/09 01:31:28;;;;;;;;;;;19.00;43.90;;;;;;5054289;28;20003;-61
2024/01/09 01:33:53;;;;;;;;;;;19.00;43.80;;;;;;5042528;28;19929;-61
2024/01/09 01:36:19;;;;;;;;;;;19.00;43.90;;;;;;5052056;28;19975;-61
2024/01/09 01:38:44;;;;;;;;;;;19.00;43.90;;;;;;5038944;28;19925;-61
2024/01/09 01:41:10;;;;;;;;;;;18.90;43.90;;;;;;5028175;28;19931;-61
2024/01/09 01:43:35;;;;;;;;;;;19.00;43.90;;;;;;5043248;28;19925;-61
2024/01/09 01:46:01;;;;;;;;;;;19.00;43.80;;;;;;5045848;28;19978;-61
2024/01/09 01:48:27;;;;;;;;;;;19.00;44.00;;;;;;5035878;28;20379;-61
2024/01/09 01:50:52;;;;;;;;;;;19.00;43.80;;;;;;5035977;28;19932;-61
2024/01/09 01:53:18;;;;;;;;;;;19.00;43.90;;;;;;5053952;28;20342;-61
2024/01/09 01:55:43;;;;;;;;;;;19.00;43.80;;;;;;5034770;28;19932;-61
2024/01/09 01:58:09;;;;;;;;;;;19.00;43.70;;;;;;5035712;28;19964;-61
2024/01/09 02:00:34;;;;;;;;;;;19.00;43.70;;;;;;5035903;28;19925;-61
2024/01/09 02:03:00;;;;;;;;;;;19.00;43.70;;;;;;5019017;28;19931;-61
2024/01/09 02:05:25;;;;;;;;;;;19.00;43.70;;;;;;5035625;28;20397;-61
2024/01/09 02:07:54;;;;;;;;;;;19.00;43.80;;;;;;5017487;28;19926;-61
2024/01/09 02:10:20;;;;;;;;;;;19.00;43.80;;;;;;5014162;28;20012;-61
2024/01/09 02:12:46;;;;;;;;;;;19.00;43.70;;;;;;5031206;28;20372;-61
2024/01/09 02:15:11;;;;;;;;;;;19.00;43.60;;;;;;5041157;28;19929;-61
2024/01/09 02:17:38;;;;;;;;;;;19.00;43.60;;;;;;5033882;28;20024;-61
2024/01/09 02:20:04;;;;;;;;;;;19.00;43.60;;;;;;5034909;28;19925;-61
2024/01/09 02:22:30;;;;;;;;;;;19.00;43.50;;;;;;5052870;28;19924;-61
2024/01/09 02:24:55;;;;;;;;;;;19.00;43.50;;;;;;5036163;28;19925;-61
2024/01/09 02:27:37;;;;;;;;;;;19.00;43.60;;;;;;5012320;28;20360;-61
2024/01/09 02:30:02;;;;;;;;;;;19.00;43.50;;;;;;4979111;28;19929;-61
2024/01/09 02:32:28;;;;;;;;;;;19.00;43.50;;;;;;5026617;28;19925;-61
2024/01/09 02:34:53;;;;;;;;;;;19.00;43.50;;;;;;5032154;28;19933;-61
2024/01/09 02:37:19;;;;;;;;;;;19.00;43.40;;;;;;5011662;28;19925;-61
2024/01/09 02:39:44;;;;;;;;;;;19.00;43.50;;;;;;5013831;28;20448;-61
2024/01/09 02:42:10;;;;;;;;;;;19.00;43.60;;;;;;5009856;28;19925;-61
2024/01/09 02:44:35;;;;;;;;;;;19.00;43.50;;;;;;5024757;28;19933;-61
2024/01/09 02:47:01;;;;;;;;;;;19.00;43.50;;;;;;5035450;28;19924;-61
2024/01/09 02:49:26;;;;;;;;;;;19.00;43.50;;;;;;5053496;28;20007;-62
2024/01/09 02:51:52;;;;;;;;;;;19.00;43.50;;;;;;5033006;28;20028;-61
2024/01/09 02:54:18;;;;;;;;;;;19.00;43.50;;;;;;5015985;28;19921;-61
2024/01/09 02:56:43;;;;;;;;;;;19.00;43.50;;;;;;5015583;28;19925;-61
2024/01/09 02:59:09;;;;;;;;;;;19.00;43.50;;;;;;5032077;28;19972;-61
2024/01/09 03:01:34;;;;;;;;;;;19.00;43.50;;;;;;5015523;28;19967;-61
2024/01/09 03:04:00;;;;;;;;;;;19.00;43.50;;;;;;5032874;28;19979;-61
2024/01/09 03:06:25;;;;;;;;;;;19.00;43.40;;;;;;5014598;28;19925;-61
2024/01/09 03:08:51;;;;;;;;;;;19.10;43.50;;;;;;5015466;28;19932;-61
2024/01/09 03:11:16;;;;;;;;;;;19.00;43.50;;;;;;5032699;28;19925;-61
2024/01/09 03:13:42;;;;;;;;;;;19.00;43.30;;;;;;5052525;28;19997;-61
2024/01/09 03:16:11;;;;;;;;;;;19.00;43.40;;;;;;5034102;28;19925;-61
2024/01/09 03:18:36;;;;;;;;;;;19.00;43.40;;;;;;5032022;28;20351;-61
2024/01/09 03:21:02;;;;;;;;;;;19.00;43.40;;;;;;5015210;28;19956;-62
2024/01/09 03:23:27;;;;;;;;;;;19.00;43.40;;;;;;5032861;28;19925;-61
2024/01/09 03:25:53;;;;;;;;;;;19.00;43.40;;;;;;5014119;28;19978;-62
2024/01/09 03:28:18;;;;;;;;;;;19.00;43.30;;;;;;5034168;28;20292;-61
2024/01/09 03:30:44;;;;;;;;;;;19.00;43.30;;;;;;5053166;28;19987;-61
2024/01/09 03:33:09;;;;;;;;;;;19.00;43.40;;;;;;5051690;28;20299;-61
2024/01/09 03:35:35;;;;;;;;;;;19.00;43.30;;;;;;5034905;28;19925;-61
2024/01/09 03:38:00;;;;;;;;;;;19.00;43.30;;;;;;5034787;28;19999;-61
2024/01/09 03:40:26;;;;;;;;;;;19.00;43.20;;;;;;5034466;28;19925;-61
2024/01/09 03:42:51;;;;;;;;;;;19.00;43.20;;;;;;5052566;28;19960;-61
2024/01/09 03:45:17;;;;;;;;;;;19.00;43.20;;;;;;5052566;28;19932;-61
2024/01/09 03:47:42;;;;;;;;;;;19.00;43.20;;;;;;5034068;28;19929;-62
2024/01/09 03:50:08;;;;;;;;;;;19.00;43.10;;;;;;5052552;28;20462;-62
2024/01/09 03:52:33;;;;;;;;;;;19.00;43.10;;;;;;5055769;28;19924;-61
2024/01/09 03:54:59;;;;;;;;;;;19.00;43.10;;;;;;5037640;28;20011;-61
2024/01/09 03:57:24;;;;;;;;;;;19.00;43.00;;;;;;5038815;28;19932;-61
2024/01/09 03:59:50;;;;;;;;;;;19.00;43.00;;;;;;5038860;28;19968;-61
2024/01/09 04:02:15;;;;;;;;;;;19.00;43.70;;;;;;5055498;28;19925;-61
2024/01/09 04:04:41;;;;;;;;;;;19.00;42.90;;;;;;5038503;28;19931;-61
2024/01/09 04:07:06;;;;;;;;;;;19.00;42.90;;;;;;5038046;28;19925;-61
2024/01/09 04:09:32;;;;;;;;;;;19.00;43.00;;;;;;5055775;28;19925;-61
2024/01/09 04:11:57;;;;;;;;;;;19.00;43.00;;;;;;5038339;28;19964;-61
2024/01/09 04:14:23;;;;;;;;;;;19.00;42.90;;;;;;5041605;28;19933;-61
2024/01/09 04:16:48;;;;;;;;;;;19.00;43.00;;;;;;5035601;28;19937;-62
2024/01/09 04:19:14;;;;;;;;;;;19.00;42.90;;;;;;5035946;28;19925;-61
2024/01/09 04:21:39;;;;;;;;;;;19.00;43.00;;;;;;5035356;28;20384;-61
2024/01/09 04:24:05;;;;;;;;;;;19.00;42.90;;;;;;5017694;28;19940;-61
2024/01/09 04:26:30;;;;;;;;;;;19.00;43.00;;;;;;5036014;28;19925;-61
2024/01/09 04:28:55;;;;;;;;;;;19.00;42.90;;;;;;5017457;28;20541;-61
2024/01/09 04:31:24;;;;;;;;;;;19.00;42.90;;;;;;5035990;28;19925;-61
2024/01/09 04:33:50;;;;;;;;;;;19.00;42.90;;;;;;5036065;28;19932;-61
2024/01/09 04:36:16;;;;;;;;;;;19.00;42.80;;;;;;5034746;28;19925;-61
2024/01/09 04:38:42;;;;;;;;;;;19.10;42.90;;;;;;5035354;28;20274;-61
2024/01/09 04:41:07;;;;;;;;;;;19.10;42.80;;;;;;5035460;28;20027;-61
2024/01/09 04:43:33;;;;;;;;;;;19.10;42.90;;;;;;5034839;28;19999;-61
2024/01/09 04:45:58;;;;;;;;;;;19.10;42.90;;;;;;5035364;28;19971;-61
2024/01/09 04:48:24;;;;;;;;;;;19.10;42.80;;;;;;5035722;28;19931;-61
2024/01/09 04:50:49;;;;;;;;;;;19.10;42.80;;;;;;5034942;28;20373;-61
2024/01/09 04:53:15;;;;;;;;;;;19.10;42.70;;;;;;5035269;28;20016;-62
2024/01/09 04:55:40;;;;;;;;;;;19.10;42.90;;;;;;5035481;28;20372;-61
2024/01/09 04:58:06;;;;;;;;;;;19.10;42.80;;;;;;5034543;28;19932;-61
2024/01/09 05:00:31;;;;;;;;;;;19.10;42.80;;;;;;5031532;28;19925;-61
2024/01/09 05:02:57;;;;;;;;;;;19.10;42.70;;;;;;5033909;28;19925;-61
2024/01/09 05:05:22;;;;;;;;;;;19.10;42.70;;;;;;5016524;28;19929;-61
2024/01/09 05:07:48;;;;;;;;;;;19.10;42.70;;;;;;5034710;28;19929;-61
2024/01/09 05:10:14;;;;;;;;;;;19.10;42.80;;;;;;5034883;28;20276;-62
2024/01/09 05:12:39;;;;;;;;;;;19.20;42.80;;;;;;5034647;28;19925;-61
2024/01/09 05:15:05;;;;;;;;;;;19.20;42.80;;;;;;5034800;28;19925;-61
2024/01/09 05:17:30;;;;;;;;;;;19.20;42.90;;;;;;5035331;28;19921;-61
2024/01/09 05:19:56;;;;;;;;;;;19.20;42.70;;;;;;5033931;28;19925;-62
2024/01/09 05:22:21;;;;;;;;;;;19.20;42.70;;;;;;5034954;28;20354;-62
2024/01/09 05:24:47;;;;;;;;;;;19.20;42.80;;;;;;5013781;28;20367;-61
2024/01/09 05:27:12;;;;;;;;;;;19.20;42.80;;;;;;5014008;28;20296;-62
2024/01/09 05:29:38;;;;;;;;;;;19.20;42.70;;;;;;5015340;28;19921;-61
2024/01/09 05:32:04;;;;;;;;;;;19.20;42.80;;;;;;5013994;28;19932;-61
2024/01/09 05:34:30;;;;;;;;;;;19.20;42.80;;;;;;5013664;28;19932;-61
2024/01/09 05:36:55;;;;;;;;;;;19.20;42.70;;;;;;5014574;28;19921;-61
2024/01/09 05:39:21;;;;;;;;;;;19.20;42.80;;;;;;5014277;28;19926;-61
2024/01/09 05:41:46;;;;;;;;;;;19.20;42.70;;;;;;5014959;28;19936;-61
2024/01/09 05:44:12;;;;;;;;;;;19.20;42.70;;;;;;5013474;28;19926;-61
2024/01/09 05:46:37;;;;;;;;;;;19.20;42.70;;;;;;5014039;28;20023;-61
2024/01/09 05:49:03;;;;;;;;;;;19.30;42.70;;;;;;5013369;28;20030;-61
2024/01/09 05:51:28;;;;;;;;;;;19.30;42.70;;;;;;5014462;28;19925;-62
2024/01/09 05:53:54;;;;;;;;;;;19.30;42.70;;;;;;5012464;28;20104;-62
2024/01/09 05:56:19;;;;;;;;;;;19.30;42.70;;;;;;5013037;28;19980;-61
2024/01/09 05:58:45;;;;;;;;;;;19.30;42.70;;;;;;5014576;28;19925;-61
2024/01/09 06:01:11;;;;;;;;;;;19.30;42.80;;;;;;5013413;28;19948;-61
2024/01/09 06:03:36;;;;;;;;;;;19.30;42.70;;;;;;5014320;28;19921;-61
2024/01/09 06:06:02;;;;;;;;;;;19.30;42.60;;;;;;5014099;28;19925;-61
2024/01/09 06:08:27;;;;;;;;;;;19.30;42.70;;;;;;5012535;28;19929;-61
2024/01/09 06:10:53;;;;;;;;;;;19.30;42.70;;;;;;5013988;28;19929;-62
2024/01/09 06:13:18;;;;;;;;;;;19.30;42.70;;;;;;5014045;28;19956;-61
2024/01/09 06:15:44;;;;;;;;;;;19.30;42.70;;;;;;5013499;28;19925;-62
2024/01/09 06:18:09;;;;;;;;;;;19.30;42.70;;;;;;5012635;28;20012;-62
2024/01/09 06:20:35;;;;;;;;;;;19.30;42.60;;;;;;5014197;28;19925;-61
2024/01/09 06:23:00;;;;;;;;;;;19.30;42.70;;;;;;5013436;28;19933;-62
2024/01/09 06:25:26;;;;;;;;;;;19.30;42.70;;;;;;5029868;28;19932;-62
2024/01/09 06:27:51;;;;;;;;;;;19.30;42.70;;;;;;5053770;28;19925;-62
2024/01/09 06:30:17;;;;;;;;;;;19.30;42.70;;;;;;5052791;28;19932;-62
2024/01/09 06:32:42;;;;;;;;;;;19.30;42.70;;;;;;5038431;28;19936;-62
2024/01/09 06:35:08;;;;;;;;;;;19.30;42.60;;;;;;5032849;28;19925;-61
2024/01/09 06:37:33;;;;;;;;;;;19.30;42.60;;;;;;5000646;28;19926;-62
2024/01/09 06:39:59;;;;;;;;;;;19.40;42.70;;;;;;5013663;28;19932;-62
2024/01/09 06:42:24;;;;;;;;;;;19.40;42.70;;;;;;5013246;28;19996;-61
2024/01/09 06:44:50;;;;;;;;;;;19.40;42.70;;;;;;5013579;28;19926;-62
2024/01/09 06:47:15;;;;;;;;;;;19.40;42.70;;;;;;5013672;28;19932;-61
2024/01/09 06:49:42;;;;;;;;;;;19.40;42.70;;;;;;5012836;28;20029;-61
2024/01/09 06:52:07;;;;;;;;;;;19.40;42.70;;;;;;5023789;28;19925;-62
2024/01/09 06:54:33;;;;;;;;;;;19.40;42.60;;;;;;5015825;28;19936;-62
2024/01/09 06:56:58;;;;;;;;;;;19.40;42.70;;;;;;5014270;28;20386;-62
2024/01/09 06:59:23;;;;;;;;;;;19.40;42.70;;;;;;5033490;28;19932;-61
2024/01/09 07:01:49;;;;;;;;;;;19.40;42.60;;;;;;5033224;28;19987;-62
2024/01/09 07:04:14;;;;;;;;;;;19.40;42.60;;;;;;5014476;28;19925;-61
2024/01/09 07:06:40;;;;;;;;;;;19.40;42.60;;;;;;5015487;28;19926;-62
2024/01/09 07:09:05;;;;;;;;;;;19.40;42.50;;;;;;5014890;28;19925;-60
2024/01/09 07:11:31;;;;;;;;;;;19.40;42.70;;;;;;5050979;28;20445;-61
2024/01/09 07:13:57;;;;;;;;;;;19.40;42.50;;;;;;5052928;28;19978;-60
2024/01/09 07:16:22;;;;;;;;;;;19.40;42.60;;;;;;5053191;28;19931;-61
2024/01/09 07:18:48;;;;;;;;;;;19.40;42.60;;;;;;5052398;28;19932;-60
2024/01/09 07:21:13;;;;;;;;;;;19.40;42.60;;;;;;5049369;28;19932;-59
2024/01/09 07:23:39;;;;;;;;;;;19.40;42.60;;;;;;5031674;28;19925;-61
2024/01/09 07:26:04;;;;;;;;;;;19.40;42.70;;;;;;5032939;28;19925;-62
2024/01/09 07:28:30;;;;;;;;;;;19.40;42.80;;;;;;5019363;28;19925;-61
2024/01/09 07:30:56;;;;;;;;;;;19.40;43.00;;;;;;5036358;28;19983;-60
2024/01/09 07:33:22;;;;;;;;;;;19.40;43.00;;;;;;5035924;28;19925;-60
2024/01/09 07:35:47;;;;;;;;;;;19.50;43.20;;;;;;5019031;28;20028;-59
2024/01/09 07:38:13;;;;;;;;;;;19.40;43.20;;;;;;5036572;28;19935;-61
2024/01/09 07:40:38;;;;;;;;;;;19.40;43.20;;;;;;5018741;28;19936;-60
2024/01/09 07:43:04;;;;;;;;;;;19.40;43.30;;;;;;5036750;28;20391;-60
2024/01/09 07:45:29;;;;;;;;;;;19.40;43.30;;;;;;5018885;28;19931;-59
2024/01/09 07:47:55;;;;;;;;;;;19.40;43.20;;;;;;5017896;28;19925;-60
2024/01/09 07:50:21;;;;;;;;;;;19.50;43.30;;;;;;5029845;28;19975;-60
2024/01/09 07:52:47;;;;;;;;;;;19.50;43.20;;;;;;5055552;28;20334;-60
2024/01/09 07:55:12;;;;;;;;;;;19.40;43.10;;;;;;5055970;28;19978;-60
2024/01/09 07:57:38;;;;;;;;;;;19.40;43.00;;;;;;5056348;28;20001;-62
2024/01/09 08:00:04;;;;;;;;;;;19.50;43.10;;;;;;5054531;28;19925;-62
2024/01/09 08:02:30;;;;;;;;;;;19.50;43.20;;;;;;5038612;28;19925;-61
2024/01/09 08:04:55;;;;;;;;;;;19.50;43.10;;;;;;5056353;28;20024;-62
2024/01/09 08:07:21;;;;;;;;;;;19.50;43.20;;;;;;5037580;28;19925;-62
2024/01/09 08:09:46;;;;;;;;;;;19.50;43.20;;;;;;5030339;28;19932;-62
2024/01/09 08:12:12;;;;;;;;;;;19.50;43.30;;;;;;4998756;28;19971;-62
2024/01/09 08:14:37;;;;;;;;;;;19.50;43.40;;;;;;5016022;28;19965;-62
2024/01/09 08:17:03;;;;;;;;;;;19.50;43.30;;;;;;5016163;28;19936;-62
2024/01/09 08:19:28;;;;;;;;;;;19.50;43.40;;;;;;5003441;28;20296;-61
2024/01/09 08:21:54;;;;;;;;;;;19.50;43.40;;;;;;5016779;28;19975;-62
2024/01/09 08:24:19;;;;;;;;;;;19.50;43.60;;;;;;5017468;28;19929;-64
2024/01/09 08:26:48;;;;;;;;;;;19.50;43.70;;;;;;5036020;28;19925;-63
2024/01/09 08:29:14;;;;;;;;;;;19.50;43.70;;;;;;5034932;28;20097;-63
2024/01/09 08:31:44;;;;;;;;;;;19.50;43.80;;;;;;5017904;28;19932;-62
2024/01/09 08:34:09;;;;;;;;;;;19.50;43.80;;;;;;5035702;28;19932;-63
2024/01/09 08:36:35;;;;;;;;;;;19.50;43.80;;;;;;5017398;28;19925;-63
2024/01/09 08:39:02;;;;;;;;;;;19.50;43.80;;;;;;5017497;28;20393;-63
2024/01/09 08:41:27;;;;;;;;;;;19.50;43.80;;;;;;5017257;28;19979;-63
2024/01/09 08:43:53;;;;;;;;;;;19.50;43.80;;;;;;5034778;28;19929;-62
2024/01/09 08:46:18;;;;;;;;;;;19.50;43.80;;;;;;5051253;28;19928;-61
2024/01/09 08:48:44;;;;;;;;;;;19.60;43.90;;;;;;5037134;28;19932;-61
2024/01/09 08:51:10;;;;;;;;;;;19.60;43.90;;;;;;5049297;28;20028;-62
2024/01/09 08:53:35;;;;;;;;;;;19.60;44.00;;;;;;5034471;28;20392;-62
2024/01/09 08:56:01;;;;;;;;;;;19.60;43.90;;;;;;5016452;28;20336;-62
2024/01/09 08:58:26;;;;;;;;;;;19.60;43.90;;;;;;5018020;28;19925;-62
2024/01/09 09:00:52;;;;;;;;;;;19.60;43.80;;;;;;5034758;28;20518;-61
2024/01/09 09:03:17;;;;;;;;;;;19.60;43.80;;;;;;5017356;28;19936;-61
2024/01/09 09:05:43;;;;;;;;;;;19.60;43.90;;;;;;5017286;28;19936;-61
2024/01/09 09:08:08;;;;;;;;;;;19.60;43.70;;;;;;5034297;28;19925;-62
2024/01/09 09:10:33;;;;;;;;;;;19.60;43.70;;;;;;5034769;28;20407;-62
2024/01/09 09:12:59;;;;;;;;;;;19.60;43.80;;;;;;5016910;28;19925;-61
2024/01/09 09:15:24;;;;;;;;;;;19.60;43.90;;;;;;5035031;28;20349;-62
2024/01/09 09:17:50;;;;;;;;;;;19.70;44.00;;;;;;5034289;28;19948;-62
2024/01/09 09:20:17;;;;;;;;;;;19.70;44.00;;;;;;5034370;28;20023;-61
2024/01/09 09:22:42;;;;;;;;;;;19.70;44.00;;;;;;5016479;28;19975;-62
2024/01/09 09:25:08;;;;;;;;;;;19.70;44.10;;;;;;5016031;28;19925;-61
2024/01/09 09:27:33;;;;;;;;;;;19.70;44.00;;;;;;5035027;28;20331;-62
2024/01/09 09:29:59;;;;;;;;;;;19.80;44.10;;;;;;5034329;28;19925;-61
2024/01/09 09:32:24;;;;;;;;;;;19.80;44.00;;;;;;5016385;28;20043;-62
2024/01/09 09:34:50;;;;;;;;;;;19.80;44.00;;;;;;5034430;28;19925;-62
2024/01/09 09:37:15;;;;;;;;;;;19.80;44.00;;;;;;5016859;28;19925;-61
2024/01/09 09:39:41;;;;;;;;;;;19.80;44.00;;;;;;5033740;28;20011;-61
2024/01/09 09:42:06;;;;;;;;;;;19.80;44.00;;;;;;5034137;28;20012;-61
2024/01/09 09:44:32;;;;;;;;;;;19.80;44.60;;;;;;5000627;28;20019;-61
2024/01/09 09:46:57;;;;;;;;;;;19.80;43.90;;;;;;5015653;28;20344;-61
2024/01/09 09:49:23;;;;;;;;;;;19.90;43.90;;;;;;5016062;28;19936;-61
2024/01/09 09:51:49;;;;;;;;;;;19.90;43.80;;;;;;5034184;28;20361;-61
2024/01/09 09:54:14;;;;;;;;;;;19.90;43.80;;;;;;5033350;28;19955;-61
2024/01/09 09:56:41;;;;;;;;;;;19.90;43.80;;;;;;5034197;28;19925;-61
2024/01/09 09:59:08;;;;;;;;;;;19.90;43.80;;;;;;5015854;28;20296;-61
2024/01/09 10:01:34;;;;;;;;;;;19.90;43.70;;;;;;5033503;28;19929;-60
2024/01/09 10:04:03;;;;;;;;;;;19.90;43.80;;;;;;5016099;28;19931;-60
2024/01/09 10:06:29;;;;;;;;;;;19.90;43.70;;;;;;5011419;28;19933;-60
2024/01/09 10:08:54;;;;;;;;;;;19.90;43.60;;;;;;5033004;28;19925;-59
2024/01/09 10:11:20;;;;;;;;;;;19.90;43.50;;;;;;5014610;28;19948;-60
2024/01/09 10:13:45;;;;;;;;;;;19.80;43.20;;;;;;5014636;28;19925;-60
2024/01/09 10:16:11;;;;;;;;;;;19.80;43.20;;;;;;5015401;28;19936;-60
2024/01/09 10:18:37;;;;;;;;;;;19.80;43.30;;;;;;5033468;28;20411;-61
2024/01/09 10:21:03;;;;;;;;;;;19.80;43.40;;;;;;5032025;28;20403;-60
2024/01/09 10:23:29;;;;;;;;;;;19.80;43.20;;;;;;5033120;28;19933;-60
2024/01/09 10:25:54;;;;;;;;;;;19.80;43.20;;;;;;5032207;28;19929;-60
2024/01/09 10:28:20;;;;;;;;;;;19.80;43.10;;;;;;5015199;28;20284;-60
2024/01/09 10:30:45;;;;;;;;;;;19.70;43.10;;;;;;5015840;28;20479;-60
2024/01/09 10:33:12;;;;;;;;;;;19.70;43.10;;;;;;5015367;28;20278;-63
2024/01/09 10:35:37;;;;;;;;;;;19.70;43.10;;;;;;5033248;28;20004;-60
2024/01/09 10:38:03;;;;;;;;;;;19.70;43.30;;;;;;5033072;28;20555;-60
2024/01/09 10:40:29;;;;;;;;;;;19.70;43.20;;;;;;5032844;28;19948;-60
2024/01/09 10:42:54;;;;;;;;;;;19.70;43.30;;;;;;5014447;28;20028;-60
2024/01/09 10:45:23;;;;;;;;;;;19.60;43.30;;;;;;5033177;28;20024;-61
2024/01/09 10:47:49;;;;;;;;;;;19.60;43.30;;;;;;5030676;28;20373;-60
2024/01/09 10:50:14;;;;;;;;;;;19.60;43.20;;;;;;5031908;28;19982;-61
2024/01/09 10:52:40;;;;;;;;;;;19.60;43.10;;;;;;5015054;28;19987;-61
2024/01/09 10:55:06;;;;;;;;;;;19.60;43.20;;;;;;5032939;28;20015;-61
2024/01/09 10:57:31;;;;;;;;;;;19.60;43.20;;;;;;5032377;28;19925;-61
2024/01/09 10:59:57;;;;;;;;;;;19.50;43.30;;;;;;5032505;28;20299;-61
2024/01/09 11:02:25;;;;;;;;;;;19.50;43.30;;;;;;5015494;28;19925;-62
2024/01/09 11:04:50;;;;;;;;;;;19.50;43.30;;;;;;5011391;28;19929;-62
2024/01/09 11:07:16;;;;;;;;;;;19.50;43.50;;;;;;5022226;28;19932;-61
2024/01/09 11:09:45;;;;;;;;;;;19.50;43.50;;;;;;5032758;28;19925;-61
2024/01/09 11:12:15;;;;;;;;;;;19.50;43.40;;;;;;5015377;28;19925;-60
2024/01/09 11:14:40;;;;;;;;;;;19.50;43.40;;;;;;5015732;28;19929;-61
2024/01/09 11:17:06;;;;;;;;;;;19.50;43.50;;;;;;5032193;28;19967;-62
2024/01/09 11:19:32;;;;;;;;;;;19.50;43.40;;;;;;4998844;28;19968;-60
2024/01/09 11:22:04;;;;;;;;;;;19.50;43.30;;;;;;5015471;28;20355;-61
2024/01/09 11:24:30;;;;;;;;;;;19.60;43.30;;;;;;4997717;28;19933;-61
2024/01/09 11:27:11;;;;;;;;;;;19.50;43.30;;;;;;5014977;28;20020;-61
2024/01/09 11:29:47;;;;;;;;;;;19.50;43.30;;;;;;5015358;28;19925;-61
2024/01/09 11:32:13;;;;;;;;;;;19.50;43.20;;;;;;5027730;28;19925;-61
2024/01/09 11:34:41;;;;;;;;;;;19.50;43.20;;;;;;5013383;28;19921;-61
2024/01/09 11:37:11;;;;;;;;;;;19.50;43.30;;;;;;5012841;28;19925;-61
2024/01/09 11:39:37;;;;;;;;;;;19.50;43.30;;;;;;5012638;28;19921;-61
2024/01/09 11:42:03;;;;;;;;;;;19.50;43.20;;;;;;5023184;28;19956;-60
2024/01/09 11:44:28;;;;;;;;;;;19.50;43.30;;;;;;4998492;28;20372;-60
2024/01/09 11:46:54;;;;;;;;;;;19.50;43.30;;;;;;5031490;28;20300;-60
2024/01/09 11:49:19;;;;;;;;;;;19.50;43.20;;;;;;5032203;28;19971;-60
2024/01/09 11:51:45;;;;;;;;;;;19.50;42.70;;;;;;5032641;28;20288;-60
2024/01/09 11:54:12;;;;;;;;;;;19.50;42.80;;;;;;5031837;28;19932;-59
2024/01/09 11:56:37;;;;;;;;;;;19.50;43.00;;;;;;5032859;28;19948;-61
2024/01/09 11:59:03;;;;;;;;;;;19.50;42.70;;;;;;5013546;28;20324;-60
2024/01/09 12:01:29;;;;;;;;;;;19.50;42.60;;;;;;5013830;28;19930;-60
2024/01/09 12:03:57;;;;;;;;;;;19.50;42.70;;;;;;5012846;28;19925;-60
2024/01/09 12:06:23;;;;;;;;;;;19.50;42.60;;;;;;5028351;28;20403;-61
2024/01/09 12:08:49;;;;;;;;;;;19.50;42.70;;;;;;5030690;28;20015;-60
2024/01/09 12:11:15;;;;;;;;;;;19.60;42.90;;;;;;5014112;28;20024;-61
2024/01/09 12:13:40;;;;;;;;;;;19.60;43.00;;;;;;5017433;28;19964;-61
2024/01/09 12:16:16;;;;;;;;;;;19.60;43.00;;;;;;5018468;28;19929;-61
2024/01/09 12:18:48;;;;;;;;;;;19.60;43.00;;;;;;5036357;28;19925;-62
2024/01/09 12:21:14;;;;;;;;;;;19.60;43.10;;;;;;5017450;28;19929;-62
2024/01/09 12:23:39;;;;;;;;;;;19.60;43.10;;;;;;5035272;28;20024;-61
2024/01/09 12:26:05;;;;;;;;;;;19.60;43.10;;;;;;5035542;28;19968;-62
2024/01/09 12:28:31;;;;;;;;;;;19.60;43.10;;;;;;5031819;28;19925;-60
2024/01/09 12:31:01;;;;;;;;;;;19.60;43.00;;;;;;5013805;28;20346;-60
2024/01/09 12:33:28;;;;;;;;;;;19.60;43.00;;;;;;5035533;28;19929;-60
2024/01/09 12:35:53;;;;;;;;;;;19.60;43.00;;;;;;5026103;28;20012;-61
2024/01/09 12:38:22;;;;;;;;;;;19.60;43.10;;;;;;5031595;28;20343;-60
2024/01/09 12:41:08;;;;;;;;;;;19.70;43.10;;;;;;5035639;28;19925;-61
2024/01/09 12:43:33;;;;;;;;;;;19.70;43.10;;;;;;5034713;28;20297;-60
2024/01/09 12:45:59;;;;;;;;;;;19.60;43.00;;;;;;5035341;28;19993;-60
2024/01/09 12:48:25;;;;;;;;;;;19.70;43.00;;;;;;5034943;28;20418;-60
2024/01/09 12:50:57;;;;;;;;;;;19.70;42.90;;;;;;5035798;28;19921;-60
2024/01/09 12:53:22;;;;;;;;;;;19.60;42.80;;;;;;5034977;28;20380;-60
2024/01/09 12:56:00;;;;;;;;;;;19.70;42.90;;;;;;5034212;28;19921;-61
2024/01/09 12:58:25;;;;;;;;;;;19.70;42.90;;;;;;5031608;28;19936;-61
2024/01/09 13:00:51;;;;;;;;;;;19.70;42.90;;;;;;5035017;28;19925;-61
2024/01/09 13:03:18;;;;;;;;;;;19.70;43.20;;;;;;5033670;28;19943;-61
2024/01/09 13:05:44;;;;;;;;;;;19.70;43.30;;;;;;5035030;28;19992;-61
2024/01/09 13:08:09;;;;;;;;;;;19.70;43.40;;;;;;5016649;28;19932;-61
2024/01/09 13:10:35;;;;;;;;;;;19.70;43.50;;;;;;5017062;28;19925;-61
2024/01/09 13:13:00;;;;;;;;;;;19.80;43.40;;;;;;5034629;28;20394;-62
2024/01/09 13:15:26;;;;;;;;;;;19.80;43.50;;;;;;5017617;28;20023;-61
2024/01/09 13:17:52;;;;;;;;;;;19.80;43.30;;;;;;5016520;28;19932;-62
2024/01/09 13:20:17;;;;;;;;;;;19.80;43.40;;;;;;5034269;28;19925;-62
2024/01/09 13:22:43;;;;;;;;;;;19.80;43.30;;;;;;5013084;28;19933;-62
2024/01/09 13:25:08;;;;;;;;;;;19.80;43.40;;;;;;5028831;28;19991;-62
2024/01/09 13:27:34;;;;;;;;;;;19.80;43.40;;;;;;5034075;28;19983;-62
2024/01/09 13:29:59;;;;;;;;;;;19.80;43.40;;;;;;5034124;28;19925;-62
2024/01/09 13:32:25;;;;;;;;;;;19.80;43.20;;;;;;5033869;28;19945;-63
2024/01/09 13:34:51;;;;;;;;;;;19.90;43.30;;;;;;5034371;28;19968;-62
2024/01/09 13:37:18;;;;;;;;;;;19.90;43.20;;;;;;5013901;28;19952;-62
2024/01/09 13:39:44;;;;;;;;;;;19.90;43.20;;;;;;5015421;28;19933;-62
2024/01/09 13:42:09;;;;;;;;;;;19.90;43.20;;;;;;5034142;28;19929;-62
2024/01/09 13:44:35;;;;;;;;;;;19.90;43.10;;;;;;5032428;28;19979;-62
2024/01/09 13:47:02;;;;;;;;;;;19.90;43.10;;;;;;5032268;28;21563;-63
2024/01/09 13:49:30;;;;;;;;;;;19.90;43.00;;;;;;5033121;28;19972;-62
2024/01/09 13:51:56;;;;;;;;;;;20.00;43.00;;;;;;5032694;28;19925;-62
2024/01/09 13:54:22;;;;;;;;;;;20.00;43.10;;;;;;5015032;28;20339;-62
2024/01/09 13:56:47;;;;;;;;;;;20.00;43.10;;;;;;5033511;28;20015;-62
2024/01/09 13:59:13;;;;;;;;;;;20.00;43.00;;;;;;5032499;28;19925;-62
2024/01/09 14:01:38;;;;;;;;;;;20.00;43.10;;;;;;5015320;28;19925;-63
2024/01/09 14:04:05;;;;;;;;;;;20.00;43.00;;;;;;5032270;28;20024;-63
2024/01/09 14:06:30;;;;;;;;;;;20.00;43.00;;;;;;5032134;28;19933;-62
2024/01/09 14:08:57;;;;;;;;;;;20.00;43.10;;;;;;5012445;28;19926;-62